TimeEST,TemperatureF,Dew PointF,Humidity,Sea Level PressureIn,VisibilityMPH,Wind Direction,Wind SpeedMPH,Gust SpeedMPH,PrecipitationIn,Events,Conditions,WindDirDegrees,DateUTC
12:46 AM,33.8,30.2,87,29.78,2.5,North,9.2,18.4,0.02,Snow,Light Snow,350,2012-11-09 05:46:00
12:54 AM,33.1,30.9,92,29.81,2.0,NNW,10.4,17.3,0.02,Snow,Light Snow,340,2012-11-09 05:54:00
1:04 AM,33.8,30.2,87,29.78,1.8,North,10.4,16.1,0.00,Snow,Light Snow,350,2012-11-09 06:04:00
1:17 AM,33.8,30.2,87,29.78,1.5,NNW,9.2,-,0.01,Snow,Light Snow,340,2012-11-09 06:17:00
1:49 AM,33.8,30.2,87,29.77,1.2,NNW,10.4,-,0.04,Snow,Light Snow,340,2012-11-09 06:49:00
1:54 AM,33.1,30.9,92,29.81,1.5,North,11.5,-,0.04,Snow,Light Snow,350,2012-11-09 06:54:00
2:26 AM,33.8,30.2,87,29.76,1.2,North,11.5,20.7,0.03,Snow,Light Snow,350,2012-11-09 07:26:00
2:41 AM,33.8,30.2,87,29.76,1.2,North,12.7,-,0.04,Snow,Light Snow,350,2012-11-09 07:41:00
2:47 AM,33.8,30.2,87,29.76,1.5,North,11.5,-,0.04,Snow,Light Snow,350,2012-11-09 07:47:00
2:54 AM,33.1,30.9,92,29.79,2.0,North,10.4,18.4,0.05,Snow,Light Snow,360,2012-11-09 07:54:00
3:14 AM,33.8,30.2,87,29.75,3.0,North,10.4,-,0.00,Snow,Light Snow,360,2012-11-09 08:14:00
3:54 AM,33.1,30.9,92,29.78,4.0,North,9.2,-,0.01,Snow,Light Snow,350,2012-11-09 08:54:00
4:54 AM,33.1,30.9,92,29.78,10.0,North,8.1,-,0.00,,Overcast,350,2012-11-09 09:54:00
5:45 AM,33.8,30.2,87,29.76,10.0,NNW,11.5,-,N/A,,Overcast,330,2012-11-09 10:45:00
5:54 AM,34.0,30.9,89,29.79,10.0,NNW,10.4,-,N/A,,Overcast,330,2012-11-09 10:54:00
6:24 AM,33.8,30.2,87,29.77,10.0,NW,6.9,-,N/A,,Overcast,320,2012-11-09 11:24:00
6:54 AM,34.0,30.9,89,29.81,10.0,NNW,10.4,-,N/A,,Overcast,330,2012-11-09 11:54:00
7:18 AM,33.8,30.2,87,29.78,10.0,NW,9.2,-,N/A,,Overcast,320,2012-11-09 12:18:00
7:54 AM,34.0,30.9,89,29.81,10.0,NW,10.4,-,N/A,,Overcast,320,2012-11-09 12:54:00
8:54 AM,34.0,30.9,89,29.80,10.0,NW,10.4,-,N/A,,Overcast,320,2012-11-09 13:54:00
9:54 AM,36.0,30.9,82,29.81,10.0,NNW,13.8,19.6,N/A,,Overcast,330,2012-11-09 14:54:00
10:03 AM,35.6,30.2,81,29.78,10.0,NW,13.8,19.6,N/A,,Overcast,320,2012-11-09 15:03:00
10:54 AM,37.0,30.9,79,29.80,10.0,NW,15.0,20.7,N/A,,Overcast,320,2012-11-09 15:54:00
11:54 AM,35.1,30.9,85,29.79,10.0,NW,12.7,17.3,N/A,,Overcast,310,2012-11-09 16:54:00
12:54 PM,36.0,30.0,79,29.79,10.0,NNW,12.7,19.6,N/A,,Overcast,330,2012-11-09 17:54:00
1:54 PM,37.0,30.0,76,29.78,10.0,NW,6.9,-,N/A,,Overcast,310,2012-11-09 18:54:00
2:54 PM,37.9,30.0,73,29.79,10.0,West,5.8,-,N/A,,Mostly Cloudy,280,2012-11-09 19:54:00
3:25 PM,37.4,30.2,75,29.76,10.0,WNW,9.2,-,N/A,,Scattered Clouds,290,2012-11-09 20:25:00
3:54 PM,36.0,30.0,79,29.80,10.0,West,4.6,-,N/A,,Partly Cloudy,280,2012-11-09 20:54:00
4:54 PM,34.0,28.9,82,29.81,10.0,West,3.5,-,N/A,,Clear,270,2012-11-09 21:54:00
5:54 PM,35.1,28.9,78,29.82,10.0,WNW,4.6,-,N/A,,Clear,290,2012-11-09 22:54:00
6:54 PM,35.1,28.9,78,29.83,10.0,WNW,8.1,-,N/A,,Partly Cloudy,290,2012-11-09 23:54:00
7:54 PM,36.0,28.9,76,29.84,10.0,WNW,8.1,-,N/A,,Clear,300,2012-11-10 00:54:00
8:54 PM,34.0,28.9,82,29.86,10.0,West,4.6,-,N/A,,Overcast,280,2012-11-10 01:54:00
9:54 PM,35.1,28.9,78,29.87,10.0,West,3.5,-,N/A,,Overcast,270,2012-11-10 02:54:00
10:54 PM,34.0,28.9,82,29.87,10.0,WSW,5.8,-,N/A,,Overcast,240,2012-11-10 03:54:00
11:54 PM,35.1,28.9,78,29.87,10.0,WSW,9.2,-,N/A,,Overcast,240,2012-11-10 04:54:00